sensor_id;sensor_type;location;lat;lon;timestamp;pressure;altitude;pressure_sealevel;temperature;humidity
77047;BME280;65977;56.380;44.022;2023-02-25T00:01:47;99421.38;;;-1.56;55.36
77047;BME280;65977;56.380;44.022;2023-02-25T00:04:13;99414.50;;;-1.57;55.02
77047;BME280;65977;56.380;44.022;2023-02-25T00:06:39;99416.78;;;-1.51;54.93
77047;BME280;65977;56.380;44.022;2023-02-25T00:09:05;99402.56;;;-1.59;54.73
77047;BME280;65977;56.380;44.022;2023-02-25T00:11:31;99416.53;;;-1.46;55.23
77047;BME280;65977;56.380;44.022;2023-02-25T00:13:57;99418.19;;;-1.45;55.00
77047;BME280;65977;56.380;44.022;2023-02-25T00:16:24;99413.34;;;-1.51;55.91
77047;BME280;65977;56.380;44.022;2023-02-25T00:18:56;99413.34;;;-1.51;56.15
77047;BME280;65977;56.380;44.022;2023-02-25T00:21:22;99414.09;;;-1.49;56.11
77047;BME280;65977;56.380;44.022;2023-02-25T00:23:49;99411.66;;;-1.52;56.00
77047;BME280;65977;56.380;44.022;2023-02-25T00:26:16;99414.19;;;-1.51;56.21
77047;BME280;65977;56.380;44.022;2023-02-25T00:28:43;99411.00;;;-1.56;56.73
77047;BME280;65977;56.380;44.022;2023-02-25T00:31:11;99403.41;;;-1.59;56.68
77047;BME280;65977;56.380;44.022;2023-02-25T00:33:37;99405.25;;;-1.61;57.19
77047;BME280;65977;56.380;44.022;2023-02-25T00:36:12;99398.31;;;-1.60;56.51
77047;BME280;65977;56.380;44.022;2023-02-25T00:38:37;99405.25;;;-1.61;57.44
77047;BME280;65977;56.380;44.022;2023-02-25T00:41:10;99386.53;;;-1.66;57.13
77047;BME280;65977;56.380;44.022;2023-02-25T00:43:39;99397.38;;;-1.59;57.40
77047;BME280;65977;56.380;44.022;2023-02-25T00:46:07;99394.63;;;-1.56;57.32
77047;BME280;65977;56.380;44.022;2023-02-25T00:48:34;99400.56;;;-1.54;56.94
77047;BME280;65977;56.380;44.022;2023-02-25T00:51:08;99385.38;;;-1.60;56.36
77047;BME280;65977;56.380;44.022;2023-02-25T00:53:34;99388.53;;;-1.55;56.93
77047;BME280;65977;56.380;44.022;2023-02-25T00:56:00;99388.34;;;-1.52;57.15
77047;BME280;65977;56.380;44.022;2023-02-25T00:58:26;99383.38;;;-1.55;57.56
77047;BME280;65977;56.380;44.022;2023-02-25T01:00:52;99390.19;;;-1.54;57.38
77047;BME280;65977;56.380;44.022;2023-02-25T01:03:18;99377.34;;;-1.56;56.68
77047;BME280;65977;56.380;44.022;2023-02-25T01:05:44;99388.13;;;-1.48;57.18
77047;BME280;65977;56.380;44.022;2023-02-25T01:08:16;99382.00;;;-1.47;56.40
77047;BME280;65977;56.380;44.022;2023-02-25T01:10:42;99383.69;;;-1.46;56.88
77047;BME280;65977;56.380;44.022;2023-02-25T01:13:08;99379.50;;;-1.48;57.23
77047;BME280;65977;56.380;44.022;2023-02-25T01:15:33;99388.88;;;-1.46;56.92
77047;BME280;65977;56.380;44.022;2023-02-25T01:17:59;99377.66;;;-1.46;57.01
77047;BME280;65977;56.380;44.022;2023-02-25T01:20:25;99371.91;;;-1.51;56.78
77047;BME280;65977;56.380;44.022;2023-02-25T01:22:51;99384.59;;;-1.47;56.15
77047;BME280;65977;56.380;44.022;2023-02-25T01:25:16;99356.78;;;-1.59;56.71
77047;BME280;65977;56.380;44.022;2023-02-25T01:27:43;99373.81;;;-1.55;56.62
77047;BME280;65977;56.380;44.022;2023-02-25T01:30:09;99371.22;;;-1.55;56.27
77047;BME280;65977;56.380;44.022;2023-02-25T01:32:36;99357.97;;;-1.64;56.59
77047;BME280;65977;56.380;44.022;2023-02-25T01:35:03;99371.66;;;-1.62;56.61
77047;BME280;65977;56.380;44.022;2023-02-25T01:37:29;99390.94;;;-1.52;56.71
77047;BME280;65977;56.380;44.022;2023-02-25T01:39:55;99389.47;;;-1.56;57.41
77047;BME280;65977;56.380;44.022;2023-02-25T01:42:21;99387.72;;;-1.56;56.95
77047;BME280;65977;56.380;44.022;2023-02-25T01:45:28;99392.47;;;-1.48;56.84
77047;BME280;65977;56.380;44.022;2023-02-25T01:47:57;99382.53;;;-1.56;56.73
77047;BME280;65977;56.380;44.022;2023-02-25T01:50:36;99383.69;;;-1.46;56.52
77047;BME280;65977;56.380;44.022;2023-02-25T01:53:05;99382.94;;;-1.48;57.31
77047;BME280;65977;56.380;44.022;2023-02-25T01:55:31;99392.94;;;-1.42;56.73
77047;BME280;65977;56.380;44.022;2023-02-25T01:58:00;99395.53;;;-1.42;57.43
77047;BME280;65977;56.380;44.022;2023-02-25T02:00:28;99395.47;;;-1.40;56.69
77047;BME280;65977;56.380;44.022;2023-02-25T02:02:56;99404.00;;;-1.38;56.69
77047;BME280;65977;56.380;44.022;2023-02-25T02:05:24;99404.91;;;-1.39;56.70
77047;BME280;65977;56.380;44.022;2023-02-25T02:07:54;99398.06;;;-1.40;56.67
77047;BME280;65977;56.380;44.022;2023-02-25T02:10:20;99403.16;;;-1.39;56.96
77047;BME280;65977;56.380;44.022;2023-02-25T02:12:46;99391.19;;;-1.41;57.35
77047;BME280;65977;56.380;44.022;2023-02-25T02:15:14;99398.72;;;-1.37;57.27
77047;BME280;65977;56.380;44.022;2023-02-25T02:20:25;99386.00;;;-1.41;57.08
77047;BME280;65977;56.380;44.022;2023-02-25T02:33:43;99391.38;;;-1.44;56.92
77047;BME280;65977;56.380;44.022;2023-02-25T02:45:22;99370.00;;;-1.48;57.30
77047;BME280;65977;56.380;44.022;2023-02-25T02:47:57;99375.25;;;-1.49;57.12
77047;BME280;65977;56.380;44.022;2023-02-25T02:50:33;99372.81;;;-1.52;57.36
77047;BME280;65977;56.380;44.022;2023-02-25T02:53:09;99375.19;;;-1.48;56.86
77047;BME280;65977;56.380;44.022;2023-02-25T02:55:40;99364.97;;;-1.51;56.42
77047;BME280;65977;56.380;44.022;2023-02-25T03:01:05;99369.47;;;-1.54;57.21
77047;BME280;65977;56.380;44.022;2023-02-25T03:03:38;99363.81;;;-1.61;57.13
77047;BME280;65977;56.380;44.022;2023-02-25T03:06:19;99364.47;;;-1.57;57.10
77047;BME280;65977;56.380;44.022;2023-02-25T03:08:53;99362.06;;;-1.60;57.05
77047;BME280;65977;56.380;44.022;2023-02-25T03:11:20;99351.19;;;-1.67;57.37
77047;BME280;65977;56.380;44.022;2023-02-25T03:13:46;99365.47;;;-1.60;57.42
77047;BME280;65977;56.380;44.022;2023-02-25T03:16:19;99347.13;;;-1.71;57.67
77047;BME280;65977;56.380;44.022;2023-02-25T03:18:55;99370.00;;;-1.63;57.68
77047;BME280;65977;56.380;44.022;2023-02-25T03:21:29;99361.88;;;-1.73;57.66
77047;BME280;65977;56.380;44.022;2023-02-25T03:23:59;99358.22;;;-1.69;57.49
77047;BME280;65977;56.380;44.022;2023-02-25T03:26:29;99363.50;;;-1.70;57.81
77047;BME280;65977;56.380;44.022;2023-02-25T03:28:55;99350.13;;;-1.78;58.14
77047;BME280;65977;56.380;44.022;2023-02-25T03:33:59;99359.47;;;-1.76;57.60
77047;BME280;65977;56.380;44.022;2023-02-25T03:36:55;99349.34;;;-1.80;58.25
77047;BME280;65977;56.380;44.022;2023-02-25T03:39:27;99351.13;;;-1.81;57.47
77047;BME280;65977;56.380;44.022;2023-02-25T03:41:55;99353.63;;;-1.79;57.58
77047;BME280;65977;56.380;44.022;2023-02-25T03:44:29;99341.19;;;-1.88;57.29
77047;BME280;65977;56.380;44.022;2023-02-25T03:46:57;99336.00;;;-1.88;57.38
77047;BME280;65977;56.380;44.022;2023-02-25T03:49:27;99353.72;;;-1.81;57.59
77047;BME280;65977;56.380;44.022;2023-02-25T03:51:55;99345.84;;;-1.79;57.63
77047;BME280;65977;56.380;44.022;2023-02-25T03:54:24;99351.03;;;-1.79;57.81
77047;BME280;65977;56.380;44.022;2023-02-25T03:56:51;99339.19;;;-1.83;57.36
77047;BME280;65977;56.380;44.022;2023-02-25T03:59:17;99341.53;;;-1.79;57.38
77047;BME280;65977;56.380;44.022;2023-02-25T04:01:46;99343.00;;;-1.75;57.65
77047;BME280;65977;56.380;44.022;2023-02-25T04:04:13;99338.78;;;-1.76;57.57
77047;BME280;65977;56.380;44.022;2023-02-25T04:06:39;99329.31;;;-1.77;57.71
77047;BME280;65977;56.380;44.022;2023-02-25T04:09:04;99330.91;;;-1.74;57.69
77047;BME280;65977;56.380;44.022;2023-02-25T04:11:31;99340.34;;;-1.73;58.29
77047;BME280;65977;56.380;44.022;2023-02-25T04:13:56;99339.19;;;-1.68;57.48
77047;BME280;65977;56.380;44.022;2023-02-25T04:16:22;99340.94;;;-1.68;57.68
77047;BME280;65977;56.380;44.022;2023-02-25T04:18:48;99333.81;;;-1.65;58.23
77047;BME280;65977;56.380;44.022;2023-02-25T04:21:34;99336.25;;;-1.62;57.57
77047;BME280;65977;56.380;44.022;2023-02-25T04:24:01;99340.25;;;-1.56;57.49
77047;BME280;65977;56.380;44.022;2023-02-25T04:26:27;99328.31;;;-1.59;57.39
77047;BME280;65977;56.380;44.022;2023-02-25T04:28:53;99330.63;;;-1.54;57.37
77047;BME280;65977;56.380;44.022;2023-02-25T04:31:19;99332.97;;;-1.50;57.44
77047;BME280;65977;56.380;44.022;2023-02-25T04:33:45;99326.38;;;-1.55;57.67
77047;BME280;65977;56.380;44.022;2023-02-25T04:38:47;99318.63;;;-1.55;57.86
77047;BME280;65977;56.380;44.022;2023-02-25T04:41:13;99335.22;;;-1.44;58.13
77047;BME280;65977;56.380;44.022;2023-02-25T04:43:38;99336.53;;;-1.37;57.85
77047;BME280;65977;56.380;44.022;2023-02-25T04:46:04;99327.84;;;-1.36;57.49
77047;BME280;65977;56.380;44.022;2023-02-25T04:48:30;99333.34;;;-1.26;57.44
77047;BME280;65977;56.380;44.022;2023-02-25T04:51:00;99290.59;;;-1.49;57.68
77047;BME280;65977;56.380;44.022;2023-02-25T04:53:26;99342.19;;;-1.14;57.64
77047;BME280;65977;56.380;44.022;2023-02-25T04:55:52;99332.63;;;-1.14;57.57
77047;BME280;65977;56.380;44.022;2023-02-25T04:58:21;99334.22;;;-1.11;57.24
77047;BME280;65977;56.380;44.022;2023-02-25T05:00:47;99322.25;;;-1.14;57.38
77047;BME280;65977;56.380;44.022;2023-02-25T05:03:13;99300.13;;;-1.19;56.98
77047;BME280;65977;56.380;44.022;2023-02-25T05:05:41;99302.63;;;-1.18;56.92
77047;BME280;65977;56.380;44.022;2023-02-25T05:08:07;99267.25;;;-1.33;57.01
77047;BME280;65977;56.380;44.022;2023-02-25T05:10:33;99311.19;;;-1.02;56.73
77047;BME280;65977;56.380;44.022;2023-02-25T05:13:23;99339.63;;;-0.86;56.75
77047;BME280;65977;56.380;44.022;2023-02-25T05:15:48;99338.72;;;-0.85;56.63
77047;BME280;65977;56.380;44.022;2023-02-25T05:18:15;99342.78;;;-0.81;56.33
77047;BME280;65977;56.380;44.022;2023-02-25T05:20:45;99340.75;;;-0.76;56.63
77047;BME280;65977;56.380;44.022;2023-02-25T05:23:11;99342.34;;;-0.74;56.27
77047;BME280;65977;56.380;44.022;2023-02-25T05:25:37;99335.97;;;-0.68;56.12
77047;BME280;65977;56.380;44.022;2023-02-25T05:28:09;99322.44;;;-0.73;55.91
77047;BME280;65977;56.380;44.022;2023-02-25T05:30:37;99309.28;;;-0.70;56.51
77047;BME280;65977;56.380;44.022;2023-02-25T05:33:03;99322.63;;;-0.48;55.86
77047;BME280;65977;56.380;44.022;2023-02-25T05:35:30;99306.34;;;-0.50;55.44
77047;BME280;65977;56.380;44.022;2023-02-25T05:37:57;99310.44;;;-0.46;55.62
77047;BME280;65977;56.380;44.022;2023-02-25T05:40:23;99310.59;;;-0.35;55.20
77047;BME280;65977;56.380;44.022;2023-02-25T05:42:49;99335.25;;;-0.14;55.38
77047;BME280;65977;56.380;44.022;2023-02-25T05:45:15;99332.53;;;-0.12;55.10
77047;BME280;65977;56.380;44.022;2023-02-25T05:47:43;99330.03;;;-0.14;54.84
77047;BME280;65977;56.380;44.022;2023-02-25T05:50:09;99324.28;;;-0.05;54.66
77047;BME280;65977;56.380;44.022;2023-02-25T05:52:35;99322.16;;;0.02;54.62
77047;BME280;65977;56.380;44.022;2023-02-25T05:55:01;99328.81;;;0.06;54.66
77047;BME280;65977;56.380;44.022;2023-02-25T05:57:28;99326.22;;;0.06;54.46
77047;BME280;65977;56.380;44.022;2023-02-25T05:59:54;99324.25;;;0.10;54.72
77047;BME280;65977;56.380;44.022;2023-02-25T06:02:22;99326.28;;;0.19;54.50
77047;BME280;65977;56.380;44.022;2023-02-25T06:04:52;99313.41;;;0.17;54.34
77047;BME280;65977;56.380;44.022;2023-02-25T06:07:17;99329.22;;;0.27;54.45
77047;BME280;65977;56.380;44.022;2023-02-25T06:09:43;99325.41;;;0.32;53.90
77047;BME280;65977;56.380;44.022;2023-02-25T06:12:15;99294.72;;;0.25;54.19
77047;BME280;65977;56.380;44.022;2023-02-25T06:18:11;99271.16;;;0.28;53.60
77047;BME280;65977;56.380;44.022;2023-02-25T06:20:37;99275.41;;;0.29;53.22
77047;BME280;65977;56.380;44.022;2023-02-25T06:23:05;99271.69;;;0.33;53.35
77047;BME280;65977;56.380;44.022;2023-02-25T06:25:31;99298.03;;;0.53;53.27
77047;BME280;65977;56.380;44.022;2023-02-25T06:28:19;99275.78;;;0.49;53.23
77047;BME280;65977;56.380;44.022;2023-02-25T06:30:45;99291.94;;;0.67;53.11
77047;BME280;65977;56.380;44.022;2023-02-25T06:33:37;99310.63;;;0.86;52.61
77047;BME280;65977;56.380;44.022;2023-02-25T06:36:04;99291.28;;;0.90;52.76
77047;BME280;65977;56.380;44.022;2023-02-25T06:38:32;99316.06;;;1.08;52.44
77047;BME280;65977;56.380;44.022;2023-02-25T06:40:58;99314.41;;;1.20;52.27
77047;BME280;65977;56.380;44.022;2023-02-25T06:43:23;99297.34;;;1.16;51.73
77047;BME280;65977;56.380;44.022;2023-02-25T06:45:49;99305.97;;;1.29;51.99
77047;BME280;65977;56.380;44.022;2023-02-25T06:48:15;99269.44;;;1.18;51.64
77047;BME280;65977;56.380;44.022;2023-02-25T06:50:41;99302.44;;;1.43;51.18
77047;BME280;65977;56.380;44.022;2023-02-25T06:53:08;99277.88;;;1.34;51.35
77047;BME280;65977;56.380;44.022;2023-02-25T06:55:34;99320.94;;;1.63;51.02
77047;BME280;65977;56.380;44.022;2023-02-25T06:58:02;99312.00;;;1.67;51.30
77047;BME280;65977;56.380;44.022;2023-02-25T07:00:28;99303.56;;;1.64;50.57
77047;BME280;65977;56.380;44.022;2023-02-25T07:02:56;99295.63;;;1.65;50.66
77047;BME280;65977;56.380;44.022;2023-02-25T07:05:22;99305.13;;;1.66;50.60
77047;BME280;65977;56.380;44.022;2023-02-25T07:07:48;99330.81;;;1.83;51.01
77047;BME280;65977;56.380;44.022;2023-02-25T07:10:13;99311.28;;;1.78;50.78
77047;BME280;65977;56.380;44.022;2023-02-25T07:12:39;99311.25;;;1.90;50.82
77047;BME280;65977;56.380;44.022;2023-02-25T07:15:05;99306.13;;;1.89;50.62
77047;BME280;65977;56.380;44.022;2023-02-25T07:17:31;99332.31;;;2.11;50.15
77047;BME280;65977;56.380;44.022;2023-02-25T07:19:57;99319.50;;;2.21;50.85
77047;BME280;65977;56.380;44.022;2023-02-25T07:22:23;99305.31;;;2.25;50.48
77047;BME280;65977;56.380;44.022;2023-02-25T07:24:48;99315.25;;;2.43;49.85
77047;BME280;65977;56.380;44.022;2023-02-25T07:27:14;99318.09;;;2.64;49.74
77047;BME280;65977;56.380;44.022;2023-02-25T07:29:40;99287.94;;;2.60;48.75
77047;BME280;65977;56.380;44.022;2023-02-25T07:32:06;99318.44;;;2.94;48.56
77047;BME280;65977;56.380;44.022;2023-02-25T07:34:33;99301.03;;;3.06;48.38
77047;BME280;65977;56.380;44.022;2023-02-25T07:37:00;99267.00;;;3.07;48.32
77047;BME280;65977;56.380;44.022;2023-02-25T07:39:26;99311.91;;;3.46;48.22
77047;BME280;65977;56.380;44.022;2023-02-25T07:41:54;99285.78;;;3.57;47.71
77047;BME280;65977;56.380;44.022;2023-02-25T07:44:19;99297.91;;;3.80;46.93
77047;BME280;65977;56.380;44.022;2023-02-25T07:46:45;99295.41;;;3.90;47.00
77047;BME280;65977;56.380;44.022;2023-02-25T07:49:11;99304.50;;;4.17;46.08
77047;BME280;65977;56.380;44.022;2023-02-25T07:51:37;99287.03;;;4.29;45.73
77047;BME280;65977;56.380;44.022;2023-02-25T07:54:03;99317.81;;;4.68;45.64
77047;BME280;65977;56.380;44.022;2023-02-25T07:56:29;99293.84;;;4.84;44.56
77047;BME280;65977;56.380;44.022;2023-02-25T07:58:56;99299.09;;;5.04;44.08
77047;BME280;65977;56.380;44.022;2023-02-25T08:01:30;99300.56;;;5.18;44.34
77047;BME280;65977;56.380;44.022;2023-02-25T08:04:00;99295.13;;;5.31;43.72
77047;BME280;65977;56.380;44.022;2023-02-25T08:06:28;99303.94;;;5.50;43.78
77047;BME280;65977;56.380;44.022;2023-02-25T08:08:54;99297.13;;;5.68;43.86
77047;BME280;65977;56.380;44.022;2023-02-25T08:11:22;99273.63;;;5.57;43.08
77047;BME280;65977;56.380;44.022;2023-02-25T08:13:48;99248.63;;;5.44;43.13
77047;BME280;65977;56.380;44.022;2023-02-25T08:16:16;99273.22;;;5.62;43.31
77047;BME280;65977;56.380;44.022;2023-02-25T08:18:42;99248.47;;;5.45;43.07
77047;BME280;65977;56.380;44.022;2023-02-25T08:21:15;99275.03;;;5.61;43.35
77047;BME280;65977;56.380;44.022;2023-02-25T08:23:42;99276.41;;;5.65;43.24
77047;BME280;65977;56.380;44.022;2023-02-25T08:26:08;99272.84;;;5.66;42.83
77047;BME280;65977;56.380;44.022;2023-02-25T08:28:35;99293.34;;;5.82;42.86
77047;BME280;65977;56.380;44.022;2023-02-25T08:31:01;99268.28;;;5.89;42.85
77047;BME280;65977;56.380;44.022;2023-02-25T08:33:31;99234.63;;;5.64;42.52
77047;BME280;65977;56.380;44.022;2023-02-25T08:36:08;99245.13;;;5.73;42.40
77047;BME280;65977;56.380;44.022;2023-02-25T08:38:34;99295.50;;;6.07;42.49
77047;BME280;65977;56.380;44.022;2023-02-25T08:41:03;99254.34;;;5.98;42.32
77047;BME280;65977;56.380;44.022;2023-02-25T08:43:32;99253.84;;;6.23;42.31
77047;BME280;65977;56.380;44.022;2023-02-25T08:45:58;99250.53;;;6.12;41.74
77047;BME280;65977;56.380;44.022;2023-02-25T08:48:25;99257.41;;;6.13;42.46
77047;BME280;65977;56.380;44.022;2023-02-25T08:50:50;99275.09;;;6.20;41.97
77047;BME280;65977;56.380;44.022;2023-02-25T08:53:16;99282.00;;;6.12;42.53
77047;BME280;65977;56.380;44.022;2023-02-25T08:55:43;99290.69;;;6.12;42.36
77047;BME280;65977;56.380;44.022;2023-02-25T08:58:09;99281.97;;;6.02;42.79
77047;BME280;65977;56.380;44.022;2023-02-25T09:00:34;99281.50;;;5.88;42.62
77047;BME280;65977;56.380;44.022;2023-02-25T09:03:01;99294.88;;;5.85;42.88
77047;BME280;65977;56.380;44.022;2023-02-25T09:05:26;99294.72;;;5.56;42.84
77047;BME280;65977;56.380;44.022;2023-02-25T09:07:52;99298.25;;;5.45;43.80
77047;BME280;65977;56.380;44.022;2023-02-25T09:10:21;99289.84;;;5.21;44.38
77047;BME280;65977;56.380;44.022;2023-02-25T09:12:48;99294.69;;;5.05;44.57
77047;BME280;65977;56.380;44.022;2023-02-25T09:15:14;99266.03;;;4.83;44.65
77047;BME280;65977;56.380;44.022;2023-02-25T09:17:40;99274.06;;;4.70;45.33
77047;BME280;65977;56.380;44.022;2023-02-25T09:20:06;99282.72;;;4.71;45.62
77047;BME280;65977;56.380;44.022;2023-02-25T09:22:34;99294.31;;;4.57;45.65
77047;BME280;65977;56.380;44.022;2023-02-25T09:25:00;99291.84;;;4.44;46.05
77047;BME280;65977;56.380;44.022;2023-02-25T09:27:26;99296.00;;;4.47;46.29
77047;BME280;65977;56.380;44.022;2023-02-25T09:29:52;99293.63;;;4.44;45.71
77047;BME280;65977;56.380;44.022;2023-02-25T09:32:20;99282.50;;;4.31;46.47
77047;BME280;65977;56.380;44.022;2023-02-25T09:34:46;99294.16;;;4.27;46.21
77047;BME280;65977;56.380;44.022;2023-02-25T09:37:16;99294.66;;;4.21;46.72
77047;BME280;65977;56.380;44.022;2023-02-25T09:39:45;99295.97;;;4.15;46.72
77047;BME280;65977;56.380;44.022;2023-02-25T09:42:22;99291.25;;;3.98;47.05
77047;BME280;65977;56.380;44.022;2023-02-25T09:44:55;99299.44;;;3.94;47.59
77047;BME280;65977;56.380;44.022;2023-02-25T09:47:46;99293.63;;;3.79;47.83
77047;BME280;65977;56.380;44.022;2023-02-25T09:50:20;99293.03;;;3.75;47.96
77047;BME280;65977;56.380;44.022;2023-02-25T09:55:34;99294.00;;;3.63;48.40
77047;BME280;65977;56.380;44.022;2023-02-25T09:58:13;99294.31;;;3.59;48.90
77047;BME280;65977;56.380;44.022;2023-02-25T10:00:50;99277.59;;;3.39;48.85
77047;BME280;65977;56.380;44.022;2023-02-25T10:03:26;99282.13;;;3.48;49.20
77047;BME280;65977;56.380;44.022;2023-02-25T10:06:04;99287.09;;;3.51;49.09
77047;BME280;65977;56.380;44.022;2023-02-25T10:18:12;99281.63;;;3.43;49.96
77047;BME280;65977;56.380;44.022;2023-02-25T10:26:31;99291.97;;;3.56;49.91
77047;BME280;65977;56.380;44.022;2023-02-25T10:29:13;99289.00;;;3.60;49.72
77047;BME280;65977;56.380;44.022;2023-02-25T10:31:44;99278.91;;;3.56;50.18
77047;BME280;65977;56.380;44.022;2023-02-25T10:34:20;99290.41;;;3.64;50.20
77047;BME280;65977;56.380;44.022;2023-02-25T10:36:59;99278.19;;;3.65;50.59
77047;BME280;65977;56.380;44.022;2023-02-25T10:39:35;99276.06;;;3.81;50.20
77047;BME280;65977;56.380;44.022;2023-02-25T10:42:00;99284.84;;;3.91;49.69
77047;BME280;65977;56.380;44.022;2023-02-25T10:44:26;99272.47;;;3.93;49.89
77047;BME280;65977;56.380;44.022;2023-02-25T10:47:00;99285.41;;;4.17;49.68
77047;BME280;65977;56.380;44.022;2023-02-25T10:49:29;99280.72;;;4.20;49.83
77047;BME280;65977;56.380;44.022;2023-02-25T10:52:15;99274.78;;;4.29;50.53
77047;BME280;65977;56.380;44.022;2023-02-25T10:54:45;99293.88;;;4.41;50.79
77047;BME280;65977;56.380;44.022;2023-02-25T10:57:24;99278.44;;;4.38;50.78
77047;BME280;65977;56.380;44.022;2023-02-25T11:00:19;99256.59;;;4.28;51.18
77047;BME280;65977;56.380;44.022;2023-02-25T11:03:04;99277.56;;;4.48;51.23
77047;BME280;65977;56.380;44.022;2023-02-25T11:08:31;99298.69;;;4.68;51.85
77047;BME280;65977;56.380;44.022;2023-02-25T11:14:16;99260.41;;;4.56;52.14
77047;BME280;65977;56.380;44.022;2023-02-25T11:19:43;99300.75;;;5.05;51.33
77047;BME280;65977;56.380;44.022;2023-02-25T11:22:27;99269.41;;;4.94;50.88
77047;BME280;65977;56.380;44.022;2023-02-25T11:25:02;99262.19;;;4.87;51.26
77047;BME280;65977;56.380;44.022;2023-02-25T11:27:50;99243.47;;;4.71;51.26
77047;BME280;65977;56.380;44.022;2023-02-25T11:30:32;99280.00;;;4.93;51.45
77047;BME280;65977;56.380;44.022;2023-02-25T11:33:03;99286.78;;;4.95;51.76
77047;BME280;65977;56.380;44.022;2023-02-25T11:35:35;99265.69;;;4.76;51.58
77047;BME280;65977;56.380;44.022;2023-02-25T11:40:43;99299.97;;;4.94;51.96
77047;BME280;65977;56.380;44.022;2023-02-25T11:46:06;99300.84;;;4.83;52.71
77047;BME280;65977;56.380;44.022;2023-02-25T11:51:12;99305.06;;;4.75;53.19
77047;BME280;65977;56.380;44.022;2023-02-25T11:56:37;99290.41;;;4.52;54.10
77047;BME280;65977;56.380;44.022;2023-02-25T11:59:27;99310.47;;;4.62;53.42
77047;BME280;65977;56.380;44.022;2023-02-25T12:10:53;99302.03;;;4.59;53.87
77047;BME280;65977;56.380;44.022;2023-02-25T12:33:08;99320.16;;;4.39;55.48
77047;BME280;65977;56.380;44.022;2023-02-25T12:44:34;99327.66;;;4.33;56.06
77047;BME280;65977;56.380;44.022;2023-02-25T12:50:20;99332.66;;;4.25;57.03
77047;BME280;65977;56.380;44.022;2023-02-25T13:17:41;99323.91;;;4.04;58.56
77047;BME280;65977;56.380;44.022;2023-02-25T13:25:56;99347.28;;;3.94;59.27
77047;BME280;65977;56.380;44.022;2023-02-25T13:34:48;99354.56;;;3.91;59.60
77047;BME280;65977;56.380;44.022;2023-02-25T13:37:24;99352.03;;;3.89;59.54
77047;BME280;65977;56.380;44.022;2023-02-25T13:40:03;99352.63;;;3.81;59.55
77047;BME280;65977;56.380;44.022;2023-02-25T13:42:56;99352.78;;;3.80;59.75
77047;BME280;65977;56.380;44.022;2023-02-25T13:54:22;99367.84;;;3.65;60.38
77047;BME280;65977;56.380;44.022;2023-02-25T13:57:34;99359.53;;;3.60;60.86
77047;BME280;65977;56.380;44.022;2023-02-25T14:03:16;99366.25;;;3.52;60.81
77047;BME280;65977;56.380;44.022;2023-02-25T14:14:30;99382.16;;;3.38;61.16
77047;BME280;65977;56.380;44.022;2023-02-25T14:22:58;99388.03;;;3.29;60.93
77047;BME280;65977;56.380;44.022;2023-02-25T14:44:38;99425.84;;;3.12;61.80
77047;BME280;65977;56.380;44.022;2023-02-25T14:47:18;99416.56;;;3.08;61.80
77047;BME280;65977;56.380;44.022;2023-02-25T14:52:35;99423.88;;;3.03;62.44
77047;BME280;65977;56.380;44.022;2023-02-25T15:00:57;99433.94;;;2.96;61.92
77047;BME280;65977;56.380;44.022;2023-02-25T15:07:03;99443.03;;;2.91;62.37
77047;BME280;65977;56.380;44.022;2023-02-25T15:23:09;99452.34;;;2.82;61.95
77047;BME280;65977;56.380;44.022;2023-02-25T15:25:43;99462.69;;;2.84;61.79
77047;BME280;65977;56.380;44.022;2023-02-25T15:33:40;99465.72;;;2.78;61.57
77047;BME280;65977;56.380;44.022;2023-02-25T15:38:53;99469.06;;;2.80;61.33
77047;BME280;65977;56.380;44.022;2023-02-25T15:41:39;99487.22;;;2.81;61.77
77047;BME280;65977;56.380;44.022;2023-02-25T15:46:42;99481.84;;;2.72;61.44
77047;BME280;65977;56.380;44.022;2023-02-25T15:59:53;99491.97;;;2.64;60.89
77047;BME280;65977;56.380;44.022;2023-02-25T16:05:03;99499.88;;;2.62;61.12
77047;BME280;65977;56.380;44.022;2023-02-25T16:07:33;99508.00;;;2.70;61.15
77047;BME280;65977;56.380;44.022;2023-02-25T16:10:40;99502.47;;;2.75;60.91
77047;BME280;65977;56.380;44.022;2023-02-25T16:13:14;99483.28;;;2.63;60.72
77047;BME280;65977;56.380;44.022;2023-02-25T16:15:48;99508.97;;;2.69;61.36
77047;BME280;65977;56.380;44.022;2023-02-25T16:22:11;99525.41;;;2.70;61.40
77047;BME280;65977;56.380;44.022;2023-02-25T16:24:17;99522.09;;;2.68;61.24
77047;BME280;65977;56.380;44.022;2023-02-25T16:27:16;99531.69;;;2.67;61.43
77047;BME280;65977;56.380;44.022;2023-02-25T16:30:35;99535.56;;;2.62;61.65
77047;BME280;65977;56.380;44.022;2023-02-25T16:33:20;99530.88;;;2.67;61.52
77047;BME280;65977;56.380;44.022;2023-02-25T16:39:03;99535.56;;;2.62;61.71
77047;BME280;65977;56.380;44.022;2023-02-25T16:41:30;99528.69;;;2.61;61.68
77047;BME280;65977;56.380;44.022;2023-02-25T16:43:57;99527.63;;;2.63;61.39
77047;BME280;65977;56.380;44.022;2023-02-25T16:46:30;99521.91;;;2.58;61.74
77047;BME280;65977;56.380;44.022;2023-02-25T16:49:03;99524.38;;;2.60;61.57
77047;BME280;65977;56.380;44.022;2023-02-25T16:51:35;99523.13;;;2.65;61.49
77047;BME280;65977;56.380;44.022;2023-02-25T16:54:10;99527.31;;;2.68;61.30
77047;BME280;65977;56.380;44.022;2023-02-25T16:57:05;99499.47;;;2.55;61.12
77047;BME280;65977;56.380;44.022;2023-02-25T17:00:16;99472.38;;;2.45;61.31
77047;BME280;65977;56.380;44.022;2023-02-25T17:02:47;99533.88;;;2.73;60.78
77047;BME280;65977;56.380;44.022;2023-02-25T17:07:55;99533.03;;;2.73;61.11
77047;BME280;65977;56.380;44.022;2023-02-25T17:10:30;99515.81;;;2.70;61.09
77047;BME280;65977;56.380;44.022;2023-02-25T17:13:00;99534.72;;;2.74;60.56
77047;BME280;65977;56.380;44.022;2023-02-25T17:15:31;99534.25;;;2.80;60.71
77047;BME280;65977;56.380;44.022;2023-02-25T17:18:06;99542.84;;;2.82;60.60
77047;BME280;65977;56.380;44.022;2023-02-25T17:20:33;99544.50;;;2.83;60.43
77047;BME280;65977;56.380;44.022;2023-02-25T17:23:05;99523.06;;;2.67;60.67
77047;BME280;65977;56.380;44.022;2023-02-25T17:25:37;99535.75;;;2.84;60.21
77047;BME280;65977;56.380;44.022;2023-02-25T17:28:05;99525.38;;;2.82;60.09